Time;durP1;ratioP1;P1;durP2;ratioP2;P2;SDS_P1;SDS_P2;PMS_P1;PMS_P2;Temp;Humidity;BMP_temperature;BMP_pressure;BME280_temperature;BME280_humidity;BME280_pressure;Samples;Min_cycle;Max_cycle;Signal;HPM_P1;HPM_P2
2021/12/11 00:00:46;;;;;;;;;;;;;;;16.05;44.88;100440.94;5084530;28;19917;-51
2021/12/11 00:03:13;;;;;;;;;;;;;;;16.04;44.94;100441.94;5085454;28;19919;-47
2021/12/11 00:05:39;;;;;;;;;;;;;;;16.05;44.87;100453.50;5085083;28;19912;-50
2021/12/11 00:08:04;;;;;;;;;;;;;;;16.04;44.82;100451.81;5085535;28;19952;-48
2021/12/11 00:10:32;;;;;;;;;;;;;;;16.03;44.90;100450.16;5084990;28;19928;-48
2021/12/11 00:12:59;;;;;;;;;;;;;;;16.02;44.82;100453.84;5085325;28;19912;-49
2021/12/11 00:15:26;;;;;;;;;;;;;;;16.00;44.78;100462.84;5084655;28;20002;-52
2021/12/11 00:17:58;;;;;;;;;;;;;;;16.00;44.80;100470.06;5084943;28;19916;-48
2021/12/11 00:20:25;;;;;;;;;;;;;;;15.98;44.83;100478.28;5084943;28;19912;-51
2021/12/11 00:22:51;;;;;;;;;;;;;;;15.98;44.83;100485.50;5084700;28;19973;-49
2021/12/11 00:25:16;;;;;;;;;;;;;;;15.97;44.75;100486.47;5084989;28;20411;-52
2021/12/11 00:27:42;;;;;;;;;;;;;;;15.94;44.75;100484.97;5084740;28;19997;-50
2021/12/11 00:30:10;;;;;;;;;;;;;;;15.94;44.74;100495.69;5084581;28;19943;-48
2021/12/11 00:32:35;;;;;;;;;;;;;;;15.93;44.91;100501.22;5084315;28;20312;-49
2021/12/11 00:35:08;;;;;;;;;;;;;;;15.92;44.75;100507.56;5084588;28;19924;-49
2021/12/11 00:37:34;;;;;;;;;;;;;;;15.91;44.88;100506.72;5084646;28;19913;-50
2021/12/11 00:40:09;;;;;;;;;;;;;;;15.91;44.72;100512.09;5084870;28;19984;-50
2021/12/11 00:42:34;;;;;;;;;;;;;;;15.90;44.89;100514.94;5084480;28;19912;-49
2021/12/11 00:45:13;;;;;;;;;;;;;;;15.90;44.78;100525.66;5084470;28;19912;-49
2021/12/11 00:47:43;;;;;;;;;;;;;;;15.89;44.77;100532.88;5084477;28;19919;-47
2021/12/11 00:50:10;;;;;;;;;;;;;;;15.87;44.72;100532.16;5084353;28;19938;-49
2021/12/11 00:52:43;;;;;;;;;;;;;;;15.87;44.81;100536.69;5084333;28;19924;-49
2021/12/11 00:55:17;;;;;;;;;;;;;;;15.85;44.89;100541.38;5084528;28;20319;-49
2021/12/11 00:57:42;;;;;;;;;;;;;;;15.83;44.84;100546.88;5084361;28;19978;-48
2021/12/11 01:00:10;;;;;;;;;;;;;;;15.83;44.73;100562.97;5084110;28;19916;-48
2021/12/11 01:02:35;;;;;;;;;;;;;;;15.81;44.75;100562.31;5083718;28;19920;-51
2021/12/11 01:05:00;;;;;;;;;;;;;;;15.81;44.77;100574.88;5084067;28;19912;-50
2021/12/11 01:07:31;;;;;;;;;;;;;;;15.79;44.78;100569.63;5083875;28;20135;-50
2021/12/11 01:09:58;;;;;;;;;;;;;;;15.78;44.81;100581.38;5084237;28;19920;-48
2021/12/11 01:12:26;;;;;;;;;;;;;;;15.77;44.82;100589.56;5083920;28;20339;-49
2021/12/11 01:14:57;;;;;;;;;;;;;;;15.75;44.84;100589.72;5084395;28;19971;-48
2021/12/11 01:17:31;;;;;;;;;;;;;;;15.74;44.91;100604.13;5083303;28;19988;-52
2021/12/11 01:19:59;;;;;;;;;;;;;;;15.73;44.75;100613.16;5084170;28;19970;-51
2021/12/11 01:24:57;;;;;;;;;;;;;;;15.71;44.79;100625.84;5087931;28;19917;-50
2021/12/11 01:27:23;;;;;;;;;;;;;;;15.71;44.84;100629.38;5083830;28;19936;-51
2021/12/11 01:29:49;;;;;;;;;;;;;;;15.70;44.82;100626.88;5084038;28;19913;-52
2021/12/11 01:32:15;;;;;;;;;;;;;;;15.68;44.82;100632.38;5083328;28;19917;-48
2021/12/11 01:34:40;;;;;;;;;;;;;;;15.68;44.72;100634.22;5083876;28;19966;-50
2021/12/11 01:37:05;;;;;;;;;;;;;;;15.66;44.70;100639.72;5083679;28;19920;-47
2021/12/11 01:39:32;;;;;;;;;;;;;;;15.66;44.77;100647.75;5084163;28;19912;-49
2021/12/11 01:41:57;;;;;;;;;;;;;;;15.66;44.69;100654.97;5083902;28;19939;-46
2021/12/11 01:44:29;;;;;;;;;;;;;;;15.64;44.81;100651.59;5083878;28;19912;-49
2021/12/11 01:46:59;;;;;;;;;;;;;;;15.65;44.75;100661.31;5083282;28;19959;-50
2021/12/11 01:49:24;;;;;;;;;;;;;;;15.62;44.77;100667.78;5083833;28;19974;-48
2021/12/11 01:51:52;;;;;;;;;;;;;;;15.63;44.74;100668.63;5083817;28;19921;-50
2021/12/11 01:54:28;;;;;;;;;;;;;;;15.62;44.77;100678.50;5081593;28;19939;-49
2021/12/11 01:56:59;;;;;;;;;;;;;;;15.61;44.73;100676.84;5082704;28;19912;-48
2021/12/11 01:59:26;;;;;;;;;;;;;;;15.61;44.73;100682.19;5083883;28;19963;-50
2021/12/11 02:01:52;;;;;;;;;;;;;;;15.61;44.78;100681.34;5073639;28;20023;-48
2021/12/11 02:04:18;;;;;;;;;;;;;;;15.61;44.66;100708.16;5063698;28;19916;-49
2021/12/11 02:06:44;;;;;;;;;;;;;;;15.60;44.76;100711.84;5063558;28;19917;-50
2021/12/11 02:09:15;;;;;;;;;;;;;;;15.60;44.73;100711.84;5063591;28;19960;-48
2021/12/11 02:11:40;;;;;;;;;;;;;;;15.59;44.70;100721.72;5063444;28;19916;-49
2021/12/11 02:14:07;;;;;;;;;;;;;;;15.59;44.56;100716.34;5063708;28;19928;-50
2021/12/11 02:16:38;;;;;;;;;;;;;;;15.59;44.60;100719.03;5062880;28;19912;-47
2021/12/11 02:19:06;;;;;;;;;;;;;;;15.57;44.53;100715.66;5063758;28;19913;-49
2021/12/11 02:21:32;;;;;;;;;;;;;;;15.58;44.51;100713.81;5063413;28;19912;-49
2021/12/11 02:23:58;;;;;;;;;;;;;;;15.58;44.57;100711.13;5081221;28;19916;-49
2021/12/11 02:26:24;;;;;;;;;;;;;;;15.58;44.49;100713.81;5083316;28;19913;-51
2021/12/11 02:28:52;;;;;;;;;;;;;;;15.57;44.60;100718.31;5083347;28;19913;-51
2021/12/11 02:31:29;;;;;;;;;;;;;;;15.56;44.63;100715.81;5085254;28;19931;-47
2021/12/11 02:33:55;;;;;;;;;;;;;;;15.56;44.61;100721.16;5087135;28;19913;-53
2021/12/11 02:36:24;;;;;;;;;;;;;;;15.54;44.63;100725.81;5086886;28;19912;-46
2021/12/11 02:39:03;;;;;;;;;;;;;;;15.53;44.58;100734.84;5087291;28;19935;-50
2021/12/11 02:41:32;;;;;;;;;;;;;;;15.52;44.57;100734.03;5086825;28;19920;-46
2021/12/11 02:44:00;;;;;;;;;;;;;;;15.53;44.57;100738.38;5085701;28;19913;-49
2021/12/11 02:46:29;;;;;;;;;;;;;;;15.52;44.54;100746.59;5080747;28;19916;-51
2021/12/11 02:49:05;;;;;;;;;;;;;;;15.52;44.50;100755.47;5086937;28;19920;-51
2021/12/11 02:51:36;;;;;;;;;;;;;;;15.52;44.60;100762.66;5086567;28;19920;-46
2021/12/11 02:54:04;;;;;;;;;;;;;;;15.51;44.51;100767.19;5086691;28;19968;-51
2021/12/11 02:56:31;;;;;;;;;;;;;;;15.50;44.46;100757.44;5086642;28;19934;-51
2021/12/11 02:58:58;;;;;;;;;;;;;;;15.51;44.43;100767.19;5086700;28;19916;-48
2021/12/11 03:01:27;;;;;;;;;;;;;;;15.50;44.47;100771.69;5086037;28;19912;-47
2021/12/11 03:04:00;;;;;;;;;;;;;;;15.49;44.41;100775.34;5086685;28;19951;-46
2021/12/11 03:06:28;;;;;;;;;;;;;;;15.49;44.48;100766.47;5086164;28;19965;-49
2021/12/11 03:08:55;;;;;;;;;;;;;;;15.49;44.38;100771.81;5086724;28;19955;-46
2021/12/11 03:11:21;;;;;;;;;;;;;;;15.48;44.48;100771.00;5086167;28;20461;-46
2021/12/11 03:13:50;;;;;;;;;;;;;;;15.47;44.39;100763.94;5086541;28;19939;-50
2021/12/11 03:16:19;;;;;;;;;;;;;;;15.47;44.43;100772.00;5085708;28;19916;-48
2021/12/11 03:18:44;;;;;;;;;;;;;;;15.47;44.35;100785.38;5086588;28;20007;-50
2021/12/11 03:21:10;;;;;;;;;;;;;;;15.47;44.41;100784.53;5086073;28;19917;-48
2021/12/11 03:23:35;;;;;;;;;;;;;;;15.45;44.42;100790.03;5085919;28;19913;-50
2021/12/11 03:26:00;;;;;;;;;;;;;;;15.45;44.38;100791.88;5085806;28;19923;-48
2021/12/11 03:28:25;;;;;;;;;;;;;;;15.43;44.50;100789.34;5085971;28;19916;-50
2021/12/11 03:30:57;;;;;;;;;;;;;;;15.44;44.43;100795.56;5085319;28;19920;-48
2021/12/11 03:33:23;;;;;;;;;;;;;;;15.42;44.39;100798.38;5086369;28;19968;-51
2021/12/11 03:35:48;;;;;;;;;;;;;;;15.43;44.52;100793.88;5085196;28;19913;-48
2021/12/11 03:38:13;;;;;;;;;;;;;;;15.41;44.50;100815.44;5085920;28;19920;-51
2021/12/11 03:40:39;;;;;;;;;;;;;;;15.41;44.36;100819.94;5085382;28;20613;-47
2021/12/11 03:43:07;;;;;;;;;;;;;;;15.41;44.44;100819.94;5086261;28;20365;-49
2021/12/11 03:45:33;;;;;;;;;;;;;;;15.40;44.33;100810.22;5084587;28;19912;-50
2021/12/11 03:48:00;;;;;;;;;;;;;;;15.39;44.35;100811.22;5085760;28;19920;-51
2021/12/11 03:50:26;;;;;;;;;;;;;;;15.39;44.38;100816.59;5085206;28;20297;-46
2021/12/11 03:52:51;;;;;;;;;;;;;;;15.38;44.55;100825.63;5085616;28;19916;-49
2021/12/11 03:55:19;;;;;;;;;;;;;;;15.37;44.39;100818.56;5085335;28;19920;-51
2021/12/11 03:57:45;;;;;;;;;;;;;;;15.37;44.40;100821.22;5085514;28;19934;-51
2021/12/11 04:00:13;;;;;;;;;;;;;;;15.35;44.35;100823.22;5084601;28;19916;-52
2021/12/11 04:02:38;;;;;;;;;;;;;;;15.35;44.34;100824.06;5085407;28;20460;-46
2021/12/11 04:05:05;;;;;;;;;;;;;;;15.34;44.32;100825.06;5084945;28;19939;-48
2021/12/11 04:07:31;;;;;;;;;;;;;;;15.33;44.44;100826.03;5085181;28;19916;-51
2021/12/11 04:09:56;;;;;;;;;;;;;;;15.34;44.41;100829.59;5085013;28;19925;-50
2021/12/11 04:12:22;;;;;;;;;;;;;;;15.33;44.41;100834.06;5085246;28;19988;-49
2021/12/11 04:14:48;;;;;;;;;;;;;;;15.33;44.33;100836.75;5084534;28;19920;-49
2021/12/11 04:17:18;;;;;;;;;;;;;;;15.33;44.36;100836.75;5085022;28;19912;-49
2021/12/11 04:19:43;;;;;;;;;;;;;;;15.32;44.27;100834.22;5083738;28;19912;-49
2021/12/11 04:22:08;;;;;;;;;;;;;;;15.32;44.31;100847.63;5084717;28;19916;-51
2021/12/11 04:24:35;;;;;;;;;;;;;;;15.32;44.31;100850.31;5084668;28;19964;-49
2021/12/11 04:27:01;;;;;;;;;;;;;;;15.32;44.28;100861.88;5084917;28;19912;-48
2021/12/11 04:29:28;;;;;;;;;;;;;;;15.33;44.29;100860.03;5083440;28;19916;-47
2021/12/11 04:31:53;;;;;;;;;;;;;;;15.32;44.31;100866.38;5084156;28;20005;-50
2021/12/11 04:34:21;;;;;;;;;;;;;;;15.30;44.29;100861.19;5084838;28;19916;-50
2021/12/11 04:36:48;;;;;;;;;;;;;;;15.30;44.31;100863.00;5084355;28;19920;-49
2021/12/11 04:39:15;;;;;;;;;;;;;;;15.30;44.15;100866.53;5084838;28;19912;-49
2021/12/11 04:41:48;;;;;;;;;;;;;;;15.30;44.08;100866.53;5084555;28;19927;-49
2021/12/11 04:44:17;;;;;;;;;;;;;;;15.30;44.13;100873.72;5085000;28;20007;-49
2021/12/11 04:46:42;;;;;;;;;;;;;;;15.29;44.10;100878.22;5083655;28;20269;-52
2021/12/11 04:49:17;;;;;;;;;;;;;;;15.29;44.19;100880.91;5084889;28;20376;-48
2021/12/11 04:51:51;;;;;;;;;;;;;;;15.30;44.23;100882.59;5083918;28;19989;-51
2021/12/11 05:02:43;;;;;;;;;;;;;;;15.28;44.27;100911.34;5084608;28;19916;-51
2021/12/11 05:10:10;;;;;;;;;;;;;;;15.27;44.26;100916.88;5063902;28;19925;-49
2021/12/11 05:12:37;;;;;;;;;;;;;;;15.26;44.21;100929.41;5082135;28;21279;-47
2021/12/11 05:15:04;;;;;;;;;;;;;;;15.25;44.20;100920.53;5082797;28;20011;-50
2021/12/11 05:17:29;;;;;;;;;;;;;;;15.27;44.19;100924.91;5068013;28;19920;-51
2021/12/11 05:19:54;;;;;;;;;;;;;;;15.25;44.31;100925.06;5072962;28;19920;-49
2021/12/11 05:22:20;;;;;;;;;;;;;;;15.24;44.32;100934.06;5070780;28;19913;-52
2021/12/11 05:24:48;;;;;;;;;;;;;;;15.24;44.27;100942.94;5077258;28;19981;-50
2021/12/11 05:27:13;;;;;;;;;;;;;;;15.23;44.28;100943.94;5083412;28;19918;-50
2021/12/11 05:29:39;;;;;;;;;;;;;;;15.24;44.28;100942.09;5079585;28;19948;-47
2021/12/11 05:32:05;;;;;;;;;;;;;;;15.24;44.41;100939.41;5080941;28;19924;-47
2021/12/11 05:34:30;;;;;;;;;;;;;;;15.26;44.27;100945.50;5083730;28;19916;-48
2021/12/11 05:36:55;;;;;;;;;;;;;;;15.24;44.29;100945.63;5071932;28;20008;-49
2021/12/11 05:39:21;;;;;;;;;;;;;;;15.27;44.33;100954.38;5069615;28;19913;-48
2021/12/11 05:41:46;;;;;;;;;;;;;;;15.25;44.49;100950.00;5063348;28;19913;-49
2021/12/11 05:44:12;;;;;;;;;;;;;;;15.25;44.47;100949.16;5065969;28;19913;-52
2021/12/11 05:46:37;;;;;;;;;;;;;;;15.25;44.52;100947.34;5082466;28;19919;-51
2021/12/11 05:49:04;;;;;;;;;;;;;;;15.26;44.61;100953.53;5080042;28;19913;-48
2021/12/11 05:51:36;;;;;;;;;;;;;;;15.26;44.56;100958.88;5067009;28;20014;-49
2021/12/11 05:54:02;;;;;;;;;;;;;;;15.27;44.64;100960.56;5056555;28;20384;-46
2021/12/11 05:56:33;;;;;;;;;;;;;;;15.28;44.72;100966.75;5078062;28;19917;-46
2021/12/11 05:58:58;;;;;;;;;;;;;;;15.28;44.80;100966.75;5077915;28;19913;-51
2021/12/11 06:01:28;;;;;;;;;;;;;;;15.28;44.67;100967.59;5071491;28;19912;-47
2021/12/11 06:03:53;;;;;;;;;;;;;;;15.28;44.73;100975.66;5073613;28;20399;-48
2021/12/11 06:06:18;;;;;;;;;;;;;;;15.29;44.79;100971.97;5075368;28;19916;-49
2021/12/11 06:08:44;;;;;;;;;;;;;;;15.30;44.98;100972.84;5076100;28;20333;-50
2021/12/11 06:11:09;;;;;;;;;;;;;;;15.30;44.85;100981.72;5075418;28;19963;-47
2021/12/11 06:13:35;;;;;;;;;;;;;;;15.30;44.96;100984.41;5086963;28;19924;-53
2021/12/11 06:16:00;;;;;;;;;;;;;;;15.31;44.91;100987.91;5083182;28;19964;-46
2021/12/11 06:18:26;;;;;;;;;;;;;;;15.30;44.91;100988.91;5080799;28;19991;-47
2021/12/11 06:20:51;;;;;;;;;;;;;;;15.30;44.79;100996.94;5073924;28;19920;-50
2021/12/11 06:23:17;;;;;;;;;;;;;;;15.30;44.88;100999.63;5078082;28;19917;-50
2021/12/11 06:25:42;;;;;;;;;;;;;;;15.30;44.93;101008.50;5075359;28;20375;-48
2021/12/11 06:28:07;;;;;;;;;;;;;;;15.30;44.92;101021.91;5083433;28;19936;-49
2021/12/11 06:30:33;;;;;;;;;;;;;;;15.30;44.98;101021.06;5083759;28;19912;-49
2021/12/11 06:32:58;;;;;;;;;;;;;;;15.30;44.99;101026.41;5080237;28;19916;-52
2021/12/11 06:35:26;;;;;;;;;;;;;;;15.30;45.04;101032.63;5077668;28;19913;-49
2021/12/11 06:37:51;;;;;;;;;;;;;;;15.31;45.08;101033.47;5084703;28;19923;-50
2021/12/11 06:40:16;;;;;;;;;;;;;;;15.31;45.08;101046.84;5070683;28;19916;-52
2021/12/11 06:42:41;;;;;;;;;;;;;;;15.31;45.08;101046.84;5086175;28;20000;-50
2021/12/11 06:45:07;;;;;;;;;;;;;;;15.31;45.10;101049.53;5085565;28;19955;-52
2021/12/11 06:47:32;;;;;;;;;;;;;;;15.32;44.99;101056.56;5075348;28;19977;-53
2021/12/11 06:49:57;;;;;;;;;;;;;;;15.32;45.11;101059.25;5066262;28;20003;-53
2021/12/11 06:52:23;;;;;;;;;;;;;;;15.33;45.11;101068.97;5066254;28;19939;-51
2021/12/11 06:54:49;;;;;;;;;;;;;;;15.33;45.03;101069.81;5066502;28;19913;-50
2021/12/11 06:57:14;;;;;;;;;;;;;;;15.23;45.05;101050.22;5074331;28;19920;-52
2021/12/11 06:59:39;;;;;;;;;;;;;;;15.33;44.99;101064.44;5082677;28;19919;-45
2021/12/11 07:02:05;;;;;;;;;;;;;;;15.33;45.02;101072.50;5081339;28;19942;-50
2021/12/11 07:04:30;;;;;;;;;;;;;;;15.34;45.10;101079.56;5066252;28;19916;-51
2021/12/11 07:06:55;;;;;;;;;;;;;;;15.34;44.98;101082.25;5066109;28;19940;-46
2021/12/11 07:09:21;;;;;;;;;;;;;;;15.33;44.99;101088.56;5066129;28;19928;-50
2021/12/11 07:11:46;;;;;;;;;;;;;;;15.33;45.08;101088.56;5072822;28;19920;-49
2021/12/11 07:14:14;;;;;;;;;;;;;;;15.34;44.85;101092.97;5082879;28;19919;-48
2021/12/11 07:16:39;;;;;;;;;;;;;;;15.37;44.95;101098.00;5084034;28;19927;-48
2021/12/11 07:19:05;;;;;;;;;;;;;;;15.43;44.91;101107.34;5072034;28;19913;-50
2021/12/11 07:21:31;;;;;;;;;;;;;;;15.48;44.77;101111.28;5080056;28;19923;-51
2021/12/11 07:23:56;;;;;;;;;;;;;;;15.53;44.62;101110.84;5080245;28;19940;-48
2021/12/11 07:26:23;;;;;;;;;;;;;;;15.56;44.64;101112.41;5082467;28;19969;-50
2021/12/11 07:28:53;;;;;;;;;;;;;;;15.59;44.58;101120.16;5085478;28;19913;-46
2021/12/11 07:31:18;;;;;;;;;;;;;;;15.62;44.48;101127.91;5081999;28;20358;-50
2021/12/11 07:33:43;;;;;;;;;;;;;;;15.64;44.43;101136.69;5081454;28;19912;-47
2021/12/11 07:36:09;;;;;;;;;;;;;;;15.66;44.30;101138.25;5083500;28;20393;-48
2021/12/11 07:38:34;;;;;;;;;;;;;;;15.68;44.22;101138.13;5079514;28;19912;-47
2021/12/11 07:41:00;;;;;;;;;;;;;;;15.69;44.12;101143.34;5085057;28;19912;-47
2021/12/11 07:43:26;;;;;;;;;;;;;;;15.71;44.12;101143.19;5071615;28;19970;-50
2021/12/11 07:45:52;;;;;;;;;;;;;;;15.72;44.05;101143.06;5084120;28;19920;-49
2021/12/11 07:48:17;;;;;;;;;;;;;;;15.73;44.13;101147.44;5078459;28;19943;-47
2021/12/11 07:50:43;;;;;;;;;;;;;;;15.75;44.05;101144.59;5058007;28;19966;-47
2021/12/11 07:53:08;;;;;;;;;;;;;;;15.75;44.02;101145.44;5084238;28;19927;-50
2021/12/11 07:55:33;;;;;;;;;;;;;;;15.77;44.03;101149.81;5082003;28;19999;-51
2021/12/11 07:58:00;;;;;;;;;;;;;;;15.77;44.04;101152.50;5081044;28;19912;-52
2021/12/11 08:00:25;;;;;;;;;;;;;;;15.79;43.95;101164.75;5082451;28;20270;-51
2021/12/11 08:02:51;;;;;;;;;;;;;;;15.81;43.86;101170.84;5079446;28;20396;-52
2021/12/11 08:05:16;;;;;;;;;;;;;;;15.83;43.81;101182.25;5084475;28;19912;-49
2021/12/11 08:07:41;;;;;;;;;;;;;;;15.85;43.79;101188.34;5081974;28;19913;-51
2021/12/11 08:10:08;;;;;;;;;;;;;;;15.88;43.59;101192.56;5076538;28;19921;-53
2021/12/11 08:12:33;;;;;;;;;;;;;;;15.90;43.53;101206.69;5064653;28;19932;-51
2021/12/11 08:14:58;;;;;;;;;;;;;;;15.92;43.50;101210.91;5070606;28;20394;-50
2021/12/11 08:17:24;;;;;;;;;;;;;;;15.95;43.27;101215.16;5084369;28;19967;-52
2021/12/11 08:19:49;;;;;;;;;;;;;;;15.95;43.15;101220.50;5076280;28;19920;-46
2021/12/11 08:22:14;;;;;;;;;;;;;;;15.95;43.17;101229.41;5072986;28;19913;-48
2021/12/11 08:24:39;;;;;;;;;;;;;;;15.96;43.31;101233.78;5084284;28;19913;-48
2021/12/11 08:27:10;;;;;;;;;;;;;;;15.96;43.03;101236.44;5075572;28;20573;-49
2021/12/11 08:29:36;;;;;;;;;;;;;;;15.97;43.10;101248.03;5081147;28;19916;-52
2021/12/11 08:32:01;;;;;;;;;;;;;;;15.96;43.14;101260.59;5076473;28;19996;-48
2021/12/11 08:34:26;;;;;;;;;;;;;;;15.96;43.07;101257.91;5084380;28;19916;-51
2021/12/11 08:36:52;;;;;;;;;;;;;;;15.96;43.12;101257.06;5081325;28;20374;-49
2021/12/11 08:39:17;;;;;;;;;;;;;;;15.96;43.06;101265.94;5064594;28;20611;-49
2021/12/11 08:41:43;;;;;;;;;;;;;;;15.96;43.10;101271.31;5067513;28;19917;-50
2021/12/11 08:44:12;;;;;;;;;;;;;;;15.98;43.05;101273.88;5080532;28;19913;-46
2021/12/11 08:46:38;;;;;;;;;;;;;;;16.03;42.91;101286.84;5077912;28;19985;-47
2021/12/11 08:49:05;;;;;;;;;;;;;;;16.13;42.90;101290.38;5078670;28;19912;-49
2021/12/11 08:51:30;;;;;;;;;;;;;;;16.26;42.61;101296.31;5073981;28;19932;-50
2021/12/11 08:53:56;;;;;;;;;;;;;;;16.36;42.27;101297.16;5077305;28;19913;-48
2021/12/11 08:56:21;;;;;;;;;;;;;;;16.40;42.09;101301.25;5074839;28;20003;-44
2021/12/11 08:58:47;;;;;;;;;;;;;;;16.42;41.89;101304.63;5080633;28;20107;-50
2021/12/11 09:01:16;;;;;;;;;;;;;;;16.42;41.94;101310.00;5080460;28;19913;-47
2021/12/11 09:03:47;;;;;;;;;;;;;;;16.43;41.90;101314.38;5084011;28;19912;-49
2021/12/11 09:06:14;;;;;;;;;;;;;;;16.42;41.75;101314.53;5083533;28;19920;-50
2021/12/11 09:08:47;;;;;;;;;;;;;;;16.42;41.79;101314.53;5076797;28;19948;-49
2021/12/11 09:11:18;;;;;;;;;;;;;;;16.42;41.87;101322.56;5082101;28;19920;-47
2021/12/11 09:13:49;;;;;;;;;;;;;;;16.43;41.72;101333.16;5075244;28;19917;-47
2021/12/11 09:16:14;;;;;;;;;;;;;;;16.44;41.77;101345.63;5059044;28;19922;-50
2021/12/11 09:18:42;;;;;;;;;;;;;;;16.43;41.66;101343.91;5077722;28;20003;-48
2021/12/11 09:21:09;;;;;;;;;;;;;;;16.43;41.66;101341.22;5077205;28;20554;-50
2021/12/11 09:23:38;;;;;;;;;;;;;;;16.43;41.40;101337.69;5074396;28;19916;-50
2021/12/11 09:26:24;;;;;;;;;;;;;;;16.44;41.43;101353.66;5081254;28;19919;-52
2021/12/11 09:29:01;;;;;;;;;;;;;;;16.44;41.40;101360.88;5081300;28;19920;-48
2021/12/11 09:31:28;;;;;;;;;;;;;;;16.45;41.49;101365.25;5079699;28;19920;-49
2021/12/11 09:33:59;;;;;;;;;;;;;;;16.44;41.41;101377.81;5065419;28;19917;-47
2021/12/11 09:36:30;;;;;;;;;;;;;;;16.45;41.32;101373.28;5079898;28;19956;-50
2021/12/11 09:38:58;;;;;;;;;;;;;;;16.46;41.43;101378.50;5085028;28;19912;-45
2021/12/11 09:41:24;;;;;;;;;;;;;;;16.47;41.48;101387.41;5087802;28;19913;-50
2021/12/11 09:43:58;;;;;;;;;;;;;;;16.47;41.48;101388.25;5088585;28;19919;-46
2021/12/11 09:46:25;;;;;;;;;;;;;;;16.49;41.31;101388.13;5087245;28;20014;-51
2021/12/11 09:48:52;;;;;;;;;;;;;;;16.49;41.44;101386.28;5088075;28;19917;-48
2021/12/11 09:51:20;;;;;;;;;;;;;;;16.49;41.27;101386.28;5087670;28;19920;-47
2021/12/11 09:53:47;;;;;;;;;;;;;;;16.51;41.38;101391.50;5088094;28;19912;-46
2021/12/11 09:56:15;;;;;;;;;;;;;;;16.51;41.31;101396.88;5087653;28;19913;-46
2021/12/11 09:58:42;;;;;;;;;;;;;;;16.52;41.21;101403.09;5087359;28;19920;-52
2021/12/11 10:01:15;;;;;;;;;;;;;;;16.52;41.26;101390.50;5086731;28;19987;-47
2021/12/11 10:03:45;;;;;;;;;;;;;;;16.52;41.17;101400.41;5083956;28;19920;-50
2021/12/11 10:06:25;;;;;;;;;;;;;;;16.53;41.23;101402.97;5075278;28;20003;-50
2021/12/11 10:09:07;;;;;;;;;;;;;;;16.53;41.21;101405.66;5081201;28;19948;-47
2021/12/11 10:11:32;;;;;;;;;;;;;;;16.54;41.31;101422.59;5086777;28;19921;-50
2021/12/11 10:14:00;;;;;;;;;;;;;;;16.55;41.29;101418.91;5087354;28;19919;-45
2021/12/11 10:16:27;;;;;;;;;;;;;;;16.56;41.29;101417.94;5064388;28;19916;-46
2021/12/11 10:18:52;;;;;;;;;;;;;;;16.58;41.19;101426.69;5078008;28;20019;-45
2021/12/11 10:21:20;;;;;;;;;;;;;;;16.60;41.12;101427.38;5079971;28;19967;-45
2021/12/11 10:23:47;;;;;;;;;;;;;;;16.61;41.26;101431.75;5083232;28;19932;-42
2021/12/11 10:26:13;;;;;;;;;;;;;;;16.63;41.33;101427.97;5084830;28;20031;-46
2021/12/11 10:28:39;;;;;;;;;;;;;;;16.65;41.34;101430.50;5084646;28;19931;-45
2021/12/11 10:31:07;;;;;;;;;;;;;;;16.69;41.31;101437.28;5084307;28;19916;-41
2021/12/11 10:33:33;;;;;;;;;;;;;;;16.72;41.32;101445.06;5084408;28;19916;-46
2021/12/11 10:36:00;;;;;;;;;;;;;;;16.76;41.44;101441.13;5084144;28;19916;-44
2021/12/11 10:38:25;;;;;;;;;;;;;;;16.79;41.42;101442.72;5084325;28;19924;-44
2021/12/11 10:40:52;;;;;;;;;;;;;;;16.83;41.47;101444.13;5084661;28;19920;-48
2021/12/11 10:43:19;;;;;;;;;;;;;;;16.85;41.52;101442.97;5084111;28;19921;-47
2021/12/11 10:45:44;;;;;;;;;;;;;;;16.86;41.52;101449.19;5077782;28;19976;-47
2021/12/11 10:48:12;;;;;;;;;;;;;;;16.86;41.45;101450.03;5083913;28;19919;-59
2021/12/11 10:50:39;;;;;;;;;;;;;;;16.87;41.67;101445.53;5083366;28;19920;-47
2021/12/11 10:53:06;;;;;;;;;;;;;;;16.89;41.48;101454.28;5084422;28;19919;-42
2021/12/11 10:55:31;;;;;;;;;;;;;;;16.88;41.51;101463.34;5079613;28;19916;-45
2021/12/11 10:57:58;;;;;;;;;;;;;;;16.87;41.64;101456.28;5078696;28;19927;-48
2021/12/11 11:00:27;;;;;;;;;;;;;;;16.87;41.61;101464.34;5081879;28;19912;-44
2021/12/11 11:02:52;;;;;;;;;;;;;;;16.86;41.56;101462.63;5079545;28;19974;-48
2021/12/11 11:05:18;;;;;;;;;;;;;;;16.84;41.57;101462.75;5077323;28;20525;-48
2021/12/11 11:07:44;;;;;;;;;;;;;;;16.85;41.65;101464.47;5066823;28;19936;-50
2021/12/11 11:10:17;;;;;;;;;;;;;;;16.86;41.59;101462.63;5085910;28;19928;-47
2021/12/11 11:12:42;;;;;;;;;;;;;;;16.85;41.69;101469.81;5064944;28;19920;-47
2021/12/11 11:15:08;;;;;;;;;;;;;;;16.85;41.49;101475.19;5085445;28;19916;-50
2021/12/11 11:17:33;;;;;;;;;;;;;;;16.86;41.64;101486.78;5085218;28;19967;-45
2021/12/11 11:19:59;;;;;;;;;;;;;;;16.86;41.55;101493.00;5086221;28;19951;-48
2021/12/11 11:22:26;;;;;;;;;;;;;;;16.84;41.62;101499.53;5085625;28;19925;-52
2021/12/11 11:24:56;;;;;;;;;;;;;;;16.83;41.71;101495.16;5076753;28;19912;-46
2021/12/11 11:27:22;;;;;;;;;;;;;;;16.82;41.68;101509.53;5059886;28;19930;-46
2021/12/11 11:29:48;;;;;;;;;;;;;;;16.81;41.86;101510.53;5084662;28;19968;-45
2021/12/11 11:32:16;;;;;;;;;;;;;;;16.79;41.80;101517.91;5085179;28;20525;-46
2021/12/11 11:34:42;;;;;;;;;;;;;;;16.78;41.81;101519.75;5069127;28;19919;-46
2021/12/11 11:37:12;;;;;;;;;;;;;;;16.78;41.96;101517.06;5065469;28;19988;-47
2021/12/11 11:39:38;;;;;;;;;;;;;;;16.78;41.87;101530.47;5077384;28;19913;-49
2021/12/11 11:42:06;;;;;;;;;;;;;;;16.78;41.96;101527.78;5085785;28;20003;-48
2021/12/11 11:44:32;;;;;;;;;;;;;;;16.79;41.92;101525.97;5081679;28;20015;-47
2021/12/11 11:46:57;;;;;;;;;;;;;;;16.79;41.95;101523.28;5080552;28;19924;-49
2021/12/11 11:49:23;;;;;;;;;;;;;;;16.80;41.88;101524.97;5076040;28;20039;-49
2021/12/11 11:51:53;;;;;;;;;;;;;;;16.80;41.91;101533.00;5052273;28;19961;-46
2021/12/11 11:54:19;;;;;;;;;;;;;;;16.80;41.86;101530.34;5075072;28;19919;-46
2021/12/11 11:56:46;;;;;;;;;;;;;;;16.82;41.88;101534.59;5079216;28;19920;-48
2021/12/11 11:59:12;;;;;;;;;;;;;;;16.84;41.82;101542.50;5079536;28;19923;-48
2021/12/11 12:01:42;;;;;;;;;;;;;;;16.83;41.72;101544.34;5072872;28;19916;-51
2021/12/11 12:04:11;;;;;;;;;;;;;;;16.83;41.86;101547.03;5083947;28;19976;-51
2021/12/11 12:06:37;;;;;;;;;;;;;;;16.84;41.73;101547.88;5077211;28;20407;-51
2021/12/11 12:09:05;;;;;;;;;;;;;;;16.84;41.95;101539.81;5085115;28;19917;-47
2021/12/11 12:11:31;;;;;;;;;;;;;;;16.83;41.86;101544.34;5084735;28;19924;-47
2021/12/11 12:13:57;;;;;;;;;;;;;;;16.85;41.89;101544.19;5078217;28;19927;-50
2021/12/11 12:16:23;;;;;;;;;;;;;;;16.85;41.82;101553.09;5064200;28;19936;-50
2021/12/11 12:18:48;;;;;;;;;;;;;;;16.85;41.92;101547.72;5065517;28;20384;-45
2021/12/11 12:21:15;;;;;;;;;;;;;;;16.87;41.90;101547.59;5084740;28;19948;-48
2021/12/11 12:23:40;;;;;;;;;;;;;;;16.88;42.07;101542.06;5084928;28;19928;-48
2021/12/11 12:26:11;;;;;;;;;;;;;;;16.89;42.01;101548.28;5084731;28;20329;-48
2021/12/11 12:28:36;;;;;;;;;;;;;;;16.90;41.92;101540.06;5084314;28;20305;-47
2021/12/11 12:31:03;;;;;;;;;;;;;;;16.91;41.86;101538.28;5084045;28;19916;-49
2021/12/11 12:33:29;;;;;;;;;;;;;;;16.92;41.81;101542.66;5084653;28;19966;-51
2021/12/11 12:35:54;;;;;;;;;;;;;;;16.93;41.92;101560.44;5084567;28;19913;-49
2021/12/11 12:38:20;;;;;;;;;;;;;;;16.92;41.91;101569.50;5084458;28;19958;-46
2021/12/11 12:40:59;;;;;;;;;;;;;;;16.93;41.94;101576.56;5084371;28;19966;-47
2021/12/11 12:46:16;;;;;;;;;;;;;;;16.92;42.11;101577.56;5002250;28;19921;-51
2021/12/11 12:48:41;;;;;;;;;;;;;;;16.92;42.20;101580.25;5002433;28;19914;-59
2021/12/11 12:51:07;;;;;;;;;;;;;;;16.91;42.05;101589.31;4985768;28;19924;-49
2021/12/11 12:53:34;;;;;;;;;;;;;;;16.90;41.98;101588.44;5002246;28;19914;-49